createdAt,value
2019-01-30T00:02:27.284Z,11.47
2019-01-30T00:04:55.191Z,11.97
2019-01-30T00:07:23.355Z,12.33
2019-01-30T00:09:51.019Z,13.03
2019-01-30T00:12:19.011Z,16.87
2019-01-30T00:14:47.058Z,16.03
2019-01-30T00:17:15.003Z,15.73
2019-01-30T00:19:42.864Z,15.50
2019-01-30T00:22:10.679Z,15.50
2019-01-30T00:24:38.498Z,18.47
2019-01-30T00:27:06.147Z,16.80
2019-01-30T00:29:33.866Z,14.43
2019-01-30T00:32:02.818Z,18.50
2019-01-30T00:34:30.559Z,11.97
2019-01-30T00:36:58.184Z,12.03
2019-01-30T00:39:25.810Z,12.13
2019-01-30T00:41:53.795Z,11.73
2019-01-30T00:44:21.399Z,11.63
2019-01-30T00:46:49.035Z,12.70
2019-01-30T00:49:16.880Z,13.17
2019-01-30T00:51:44.496Z,13.10
2019-01-30T00:54:12.399Z,14.37
2019-01-30T00:56:40.033Z,14.03
2019-01-30T00:59:07.733Z,11.87
2019-01-30T01:01:35.635Z,12.53
2019-01-30T01:04:03.644Z,18.47
2019-01-30T01:06:31.290Z,14.17
2019-01-30T01:08:58.895Z,19.57
2019-01-30T01:11:26.843Z,16.47
2019-01-30T01:13:54.836Z,17.13
2019-01-30T01:16:22.774Z,14.83
2019-01-30T01:27:32.032Z,15.27
2019-01-30T01:29:59.691Z,16.03
2019-01-30T01:32:27.315Z,15.30
2019-01-30T01:34:55.285Z,15.70
2019-01-30T01:37:22.904Z,15.63
2019-01-30T01:39:51.177Z,17.27
2019-01-30T01:42:18.803Z,16.47
2019-01-30T01:44:46.370Z,19.03
2019-01-30T01:47:14.320Z,18.17
2019-01-30T01:49:42.259Z,17.13
2019-01-30T01:52:09.881Z,17.23
2019-01-30T01:54:37.793Z,14.40
2019-01-30T01:57:05.999Z,17.23
2019-01-30T01:59:33.929Z,19.93
2019-01-30T02:02:01.583Z,17.03
2019-01-30T02:04:29.230Z,17.53
2019-01-30T02:06:56.842Z,16.43
2019-01-30T02:09:24.470Z,20.63
2019-01-30T02:11:52.034Z,20.63
2019-01-30T02:14:19.647Z,19.83
2019-01-30T02:19:44.011Z,19.73
2019-01-30T02:22:12.036Z,18.10
2019-01-30T02:24:39.731Z,20.30
2019-01-30T02:27:07.808Z,25.00
2019-01-30T02:29:35.595Z,23.00
2019-01-30T02:32:03.737Z,20.63
2019-01-30T02:34:31.573Z,18.60
2019-01-30T02:36:59.548Z,21.47
2019-01-30T02:39:27.328Z,24.07
2019-01-30T02:41:55.052Z,20.20
2019-01-30T02:44:23.423Z,21.23
2019-01-30T02:46:51.143Z,16.90
2019-01-30T02:49:19.061Z,19.33
2019-01-30T02:51:46.878Z,19.73
2019-01-30T02:54:14.688Z,21.13
2019-01-30T02:56:42.576Z,19.30
2019-01-30T02:59:10.395Z,17.57
2019-01-30T03:02:00.201Z,20.27
2019-01-30T03:04:27.936Z,16.50
2019-01-30T03:06:55.814Z,17.73
2019-01-30T03:09:23.497Z,18.73
2019-01-30T03:11:51.365Z,23.20
2019-01-30T03:14:19.259Z,17.37
2019-01-30T03:16:47.041Z,19.10
2019-01-30T03:19:16.814Z,21.53
2019-01-30T03:21:44.731Z,19.70
2019-01-30T03:24:12.468Z,21.80
2019-01-30T03:26:40.064Z,26.87
2019-01-30T03:29:07.720Z,20.97
2019-01-30T03:31:35.290Z,23.97
2019-01-30T03:36:54.014Z,29.07
2019-01-30T03:39:22.769Z,23.20
2019-01-30T03:41:50.388Z,27.60
2019-01-30T03:44:18.061Z,29.60
2019-01-30T03:46:45.605Z,23.53
2019-01-30T03:49:13.487Z,24.50
2019-01-30T03:57:16.902Z,30.77
2019-01-30T03:59:44.971Z,25.20
2019-01-30T04:02:12.537Z,21.93
2019-01-30T04:04:40.196Z,24.33
2019-01-30T04:07:07.808Z,28.30
2019-01-30T04:09:35.467Z,32.63
2019-01-30T04:12:03.071Z,28.90
2019-01-30T04:14:30.740Z,30.27
2019-01-30T04:16:58.340Z,27.60
2019-01-30T04:19:26.552Z,32.37
2019-01-30T04:21:55.601Z,25.77
2019-01-30T04:24:23.220Z,29.87
2019-01-30T04:26:50.942Z,30.87
2019-01-30T04:29:18.516Z,27.10
2019-01-30T04:31:46.215Z,28.23
2019-01-30T04:34:13.950Z,31.17
2019-01-30T04:36:41.576Z,27.83
2019-01-30T04:39:09.170Z,30.10
2019-01-30T04:41:36.886Z,28.60
2019-01-30T04:44:04.510Z,29.23
2019-01-30T04:46:34.271Z,27.20
2019-01-30T04:49:13.134Z,34.13
2019-01-30T04:51:40.989Z,29.50
2019-01-30T04:54:09.299Z,28.73
2019-01-30T04:56:36.971Z,30.63
2019-01-30T04:59:04.721Z,27.67
2019-01-30T05:01:32.564Z,37.13
2019-01-30T05:04:00.331Z,40.93
2019-01-30T05:06:28.318Z,36.93
2019-01-30T05:08:56.182Z,32.93
2019-01-30T05:11:24.109Z,33.67
2019-01-30T05:13:51.799Z,35.50
2019-01-30T05:16:19.489Z,42.67
2019-01-30T05:18:47.217Z,35.17
2019-01-30T05:21:14.886Z,35.60
2019-01-30T05:23:42.637Z,41.30
2019-01-30T05:26:10.334Z,46.77
2019-01-30T05:28:38.056Z,40.10
2019-01-30T05:31:05.786Z,45.20
2019-01-30T05:33:33.453Z,39.63
2019-01-30T05:36:01.220Z,47.47
2019-01-30T05:38:29.321Z,48.03
2019-01-30T05:40:57.112Z,47.47
2019-01-30T05:43:24.762Z,44.93
2019-01-30T05:45:52.452Z,53.83
2019-01-30T05:48:20.175Z,45.47
2019-01-30T05:50:47.825Z,57.20
2019-01-30T05:53:15.410Z,51.13
2019-01-30T05:55:43.384Z,49.57
2019-01-30T05:58:11.097Z,47.53
2019-01-30T06:00:41.274Z,55.03
2019-01-30T06:03:08.902Z,50.97
2019-01-30T06:05:36.795Z,60.77
2019-01-30T06:08:05.066Z,53.93
2019-01-30T06:10:32.637Z,57.63
2019-01-30T06:13:00.324Z,48.53
2019-01-30T06:15:28.254Z,51.33
2019-01-30T06:17:55.903Z,53.30
2019-01-30T06:20:24.336Z,57.57
2019-01-30T06:22:54.551Z,56.20
2019-01-30T06:28:08.598Z,57.37
2019-01-30T06:30:36.341Z,61.60
2019-01-30T06:33:04.020Z,59.73
2019-01-30T06:35:31.725Z,60.90
2019-01-30T06:37:59.391Z,57.67
2019-01-30T06:40:28.461Z,62.80
2019-01-30T06:42:56.121Z,96.07
2019-01-30T06:45:23.809Z,62.17
2019-01-30T06:47:51.539Z,66.60
2019-01-30T06:50:19.329Z,62.47
2019-01-30T06:52:46.988Z,69.07
2019-01-30T06:55:14.659Z,69.07
2019-01-30T06:57:42.298Z,74.67
2019-01-30T07:00:11.917Z,70.50
2019-01-30T07:02:39.549Z,66.50
2019-01-30T07:05:07.347Z,80.10
2019-01-30T07:07:35.132Z,155.43
2019-01-30T07:10:04.243Z,165.60
2019-01-30T07:12:32.313Z,96.27
2019-01-30T07:15:00.306Z,87.20
2019-01-30T07:17:28.349Z,81.87
2019-01-30T07:19:56.014Z,79.70
2019-01-30T07:22:23.816Z,81.40
2019-01-30T07:24:51.568Z,80.13
2019-01-30T07:27:20.743Z,82.60
2019-01-30T07:29:48.418Z,82.20
2019-01-30T07:32:15.991Z,83.30
2019-01-30T07:34:43.946Z,91.50
2019-01-30T07:37:11.567Z,89.53
2019-01-30T07:39:39.669Z,89.07
2019-01-30T07:42:07.235Z,87.50
2019-01-30T07:44:34.860Z,93.23
2019-01-30T07:47:02.468Z,89.83
2019-01-30T07:49:30.093Z,85.03
2019-01-30T07:51:57.958Z,86.30
2019-01-30T07:54:26.142Z,92.73
2019-01-30T07:56:54.072Z,83.60
2019-01-30T07:59:22.840Z,97.07
2019-01-30T08:01:50.797Z,99.30
2019-01-30T08:04:18.751Z,94.50
2019-01-30T08:06:46.500Z,126.67
2019-01-30T08:09:14.093Z,111.53
2019-01-30T08:11:41.720Z,98.40
2019-01-30T08:14:09.347Z,86.50
2019-01-30T08:16:42.907Z,94.57
2019-01-30T08:19:14.030Z,85.80
2019-01-30T08:21:41.690Z,92.87
2019-01-30T08:24:10.053Z,78.80
2019-01-30T08:26:38.496Z,78.00
2019-01-30T08:29:06.517Z,81.37
2019-01-30T08:31:35.031Z,80.70
2019-01-30T08:34:02.887Z,82.00
2019-01-30T08:36:30.691Z,85.27
2019-01-30T08:38:58.624Z,83.77
2019-01-30T08:41:26.346Z,89.37
2019-01-30T08:43:54.835Z,87.57
2019-01-30T08:46:23.323Z,73.13
2019-01-30T08:48:51.010Z,76.00
2019-01-30T08:51:20.695Z,73.97
2019-01-30T08:53:48.492Z,73.27
2019-01-30T08:56:16.196Z,75.60
2019-01-30T08:58:45.266Z,82.43
2019-01-30T09:01:13.302Z,76.80
2019-01-30T09:03:41.122Z,75.87
2019-01-30T09:06:08.872Z,79.07
2019-01-30T09:08:36.919Z,72.53
2019-01-30T09:11:05.368Z,76.37
2019-01-30T09:13:34.142Z,70.87
2019-01-30T09:16:02.003Z,71.50
2019-01-30T09:18:30.811Z,67.10
2019-01-30T09:20:58.386Z,64.43
2019-01-30T09:23:26.043Z,68.87
2019-01-30T09:25:54.647Z,62.67
2019-01-30T09:28:22.266Z,61.47
2019-01-30T09:30:50.676Z,58.90
2019-01-30T09:33:25.623Z,58.07
2019-01-30T09:35:47.692Z,55.33
2019-01-30T09:38:15.300Z,54.43
2019-01-30T09:40:42.955Z,57.30
2019-01-30T09:43:10.705Z,54.53
2019-01-30T09:45:38.724Z,51.27
2019-01-30T09:48:06.766Z,51.73
2019-01-30T09:50:35.174Z,50.73
2019-01-30T09:53:03.241Z,52.87
2019-01-30T09:55:31.193Z,49.67
2019-01-30T09:57:59.655Z,51.47
2019-01-30T10:00:28.559Z,52.57
2019-01-30T10:02:56.687Z,42.13
2019-01-30T10:05:25.079Z,47.37
2019-01-30T10:07:55.162Z,50.43
2019-01-30T10:10:24.185Z,44.63
2019-01-30T10:12:52.596Z,45.63
2019-01-30T10:15:21.448Z,43.23
2019-01-30T10:17:49.765Z,43.53
2019-01-30T10:20:21.606Z,44.80
2019-01-30T10:22:49.344Z,40.83
2019-01-30T10:25:17.055Z,45.90
2019-01-30T10:27:44.915Z,42.87
2019-01-30T10:30:14.595Z,42.63
2019-01-30T10:32:42.275Z,44.40
2019-01-30T10:35:10.157Z,42.43
2019-01-30T10:37:38.285Z,39.27
2019-01-30T10:40:07.373Z,35.27
2019-01-30T10:42:35.573Z,37.33
2019-01-30T10:45:11.150Z,34.63
2019-01-30T10:47:38.778Z,32.37
2019-01-30T10:50:07.300Z,32.63
2019-01-30T10:52:34.911Z,35.50
2019-01-30T10:55:02.905Z,31.60
2019-01-30T10:57:30.562Z,33.93
2019-01-30T10:59:58.192Z,34.30
2019-01-30T11:05:08.823Z,35.90
2019-01-30T11:07:36.679Z,38.47
2019-01-30T11:10:05.031Z,36.83
2019-01-30T11:12:32.842Z,36.50
2019-01-30T11:15:02.903Z,33.03
2019-01-30T11:17:29.899Z,31.00
2019-01-30T11:19:57.761Z,32.17
2019-01-30T11:22:25.569Z,30.73
2019-01-30T11:24:55.729Z,25.23
2019-01-30T11:27:23.300Z,24.07
2019-01-30T11:29:51.019Z,22.90
2019-01-30T11:32:18.855Z,23.17
2019-01-30T11:34:46.497Z,20.33
2019-01-30T11:37:14.142Z,21.27
2019-01-30T11:39:41.795Z,21.30
2019-01-30T11:42:11.655Z,20.13
2019-01-30T11:44:39.697Z,18.70
2019-01-30T11:47:07.327Z,19.10
2019-01-30T11:55:20.079Z,18.47
2019-01-30T11:57:48.161Z,14.53
2019-01-30T12:00:26.347Z,12.80
2019-01-30T12:02:55.132Z,12.03
2019-01-30T12:05:23.121Z,12.03
2019-01-30T12:07:51.899Z,13.63
2019-01-30T12:10:19.595Z,11.17
2019-01-30T12:12:47.236Z,9.97
2019-01-30T12:21:01.172Z,10.10
2019-01-30T12:23:28.864Z,9.57
2019-01-30T12:25:56.638Z,9.83
2019-01-30T12:28:24.294Z,9.43
2019-01-30T12:30:52.276Z,7.10
2019-01-30T12:33:19.949Z,7.73
2019-01-30T12:35:47.603Z,7.03
2019-01-30T12:38:16.386Z,7.27
2019-01-30T12:40:44.052Z,6.60
2019-01-30T12:43:11.662Z,7.03
2019-01-30T12:45:39.441Z,6.73
2019-01-30T12:48:07.156Z,5.67
2019-01-30T12:50:36.547Z,5.30
2019-01-30T12:53:04.196Z,5.07
2019-01-30T12:58:18.605Z,4.73
2019-01-30T13:00:46.480Z,4.60
2019-01-30T13:03:14.670Z,3.43
2019-01-30T13:05:42.594Z,4.60
2019-01-30T13:08:11.428Z,5.87
2019-01-30T13:10:39.139Z,4.77
2019-01-30T13:13:06.830Z,4.00
2019-01-30T13:15:34.644Z,5.27
2019-01-30T13:18:03.175Z,3.97
2019-01-30T13:20:31.179Z,2.90
2019-01-30T13:22:59.272Z,4.83
2019-01-30T13:25:28.217Z,7.27
2019-01-30T13:27:57.896Z,4.87
2019-01-30T13:30:27.607Z,5.00
2019-01-30T13:32:55.271Z,4.37
2019-01-30T13:35:24.098Z,4.77
2019-01-30T13:37:51.718Z,6.77
2019-01-30T13:40:24.241Z,7.17
2019-01-30T13:42:53.328Z,8.97
2019-01-30T13:45:21.385Z,13.73
2019-01-30T13:47:49.058Z,19.53
2019-01-30T13:50:17.928Z,8.93
2019-01-30T13:52:45.594Z,12.70
2019-01-30T13:55:13.459Z,7.37
2019-01-30T13:57:41.177Z,4.03
2019-01-30T14:00:14.754Z,4.00
2019-01-30T14:02:42.324Z,5.17
2019-01-30T14:05:10.445Z,4.93
2019-01-30T14:10:33.160Z,9.60
2019-01-30T14:13:01.337Z,10.87
2019-01-30T14:15:29.084Z,16.60
2019-01-30T14:17:56.746Z,12.97
2019-01-30T14:20:24.698Z,12.90
2019-01-30T14:28:51.735Z,12.37
2019-01-30T14:31:19.434Z,10.80
2019-01-30T14:33:47.043Z,11.10
2019-01-30T14:36:14.834Z,7.37
2019-01-30T14:38:43.161Z,7.67
2019-01-30T14:41:10.806Z,8.03
2019-01-30T14:43:38.544Z,11.57
2019-01-30T14:46:06.131Z,8.20
2019-01-30T14:48:33.732Z,8.27
2019-01-30T14:51:01.366Z,8.60
2019-01-30T14:53:29.040Z,8.20
2019-01-30T14:55:56.618Z,6.67
2019-01-30T14:58:25.229Z,7.23
2019-01-30T15:00:53.051Z,9.87
2019-01-30T15:03:22.321Z,4.50
2019-01-30T15:05:49.967Z,16.13
2019-01-30T15:08:18.009Z,4.10
2019-01-30T15:10:45.696Z,1.83
2019-01-30T15:13:13.293Z,2.43
2019-01-30T15:15:40.942Z,4.63
2019-01-30T15:18:08.542Z,3.53
2019-01-30T15:20:37.570Z,82.73
2019-01-30T15:23:05.820Z,9.10
2019-01-30T15:25:33.426Z,1.47
2019-01-30T15:28:01.260Z,4.23
2019-01-30T15:30:30.490Z,3.30
2019-01-30T15:32:58.190Z,2.93
2019-01-30T15:35:33.163Z,5.93
2019-01-30T15:37:55.193Z,5.80
2019-01-30T15:40:25.828Z,2.50
2019-01-30T15:42:53.630Z,3.07
2019-01-30T15:45:21.830Z,4.10
2019-01-30T15:47:49.479Z,4.77
2019-01-30T15:50:18.212Z,11.33
2019-01-30T15:52:45.890Z,9.90
2019-01-30T15:55:13.474Z,7.00
2019-01-30T15:57:41.489Z,3.97
2019-01-30T16:00:12.209Z,5.57
2019-01-30T16:02:40.779Z,6.93
2019-01-30T16:05:09.018Z,8.13
2019-01-30T16:07:37.674Z,5.33
2019-01-30T16:10:08.663Z,6.00
2019-01-30T16:12:36.312Z,3.30
2019-01-30T16:15:05.105Z,3.93
2019-01-30T16:17:32.736Z,7.67
2019-01-30T16:20:00.373Z,5.90
2019-01-30T16:22:28.443Z,5.03
2019-01-30T16:25:08.442Z,6.70
2019-01-30T16:27:27.701Z,9.90
2019-01-30T16:29:55.633Z,4.70
2019-01-30T16:32:23.745Z,6.67
2019-01-30T16:34:51.947Z,8.13
2019-01-30T16:37:19.586Z,5.50
2019-01-30T16:42:35.941Z,5.80
2019-01-30T16:45:04.885Z,10.50
2019-01-30T16:47:32.596Z,6.63
2019-01-30T16:50:00.339Z,5.97
2019-01-30T16:52:27.867Z,6.27
2019-01-30T16:54:55.697Z,8.83
2019-01-30T16:57:23.955Z,11.47
2019-01-30T16:59:51.952Z,14.83
2019-01-30T17:02:19.774Z,14.43
2019-01-30T17:04:47.898Z,17.13
2019-01-30T17:07:15.696Z,25.90
2019-01-30T17:09:43.679Z,31.07
2019-01-30T17:12:11.397Z,20.90
2019-01-30T17:14:39.189Z,17.10
2019-01-30T17:17:06.810Z,19.23
2019-01-30T17:19:37.096Z,14.67
2019-01-30T17:22:04.735Z,14.03
2019-01-30T17:24:32.346Z,9.97
2019-01-30T17:27:00.135Z,12.37
2019-01-30T17:29:27.814Z,12.00
2019-01-30T17:31:55.876Z,13.97
2019-01-30T17:34:24.085Z,11.97
2019-01-30T17:36:51.846Z,11.50
2019-01-30T17:39:19.604Z,15.63
2019-01-30T17:41:47.398Z,10.43
2019-01-30T17:44:15.126Z,8.40
2019-01-30T17:46:42.909Z,8.43
2019-01-30T17:49:10.743Z,10.73
2019-01-30T17:51:38.509Z,10.87
2019-01-30T17:54:29.020Z,8.90
2019-01-30T17:56:56.973Z,8.77
2019-01-30T17:59:24.588Z,13.23
2019-01-30T18:01:52.195Z,13.17
2019-01-30T18:04:20.351Z,6.73
2019-01-30T18:06:52.046Z,16.13
2019-01-30T18:09:20.941Z,12.73
2019-01-30T18:11:48.857Z,15.50
2019-01-30T18:14:16.825Z,16.60
2019-01-30T18:16:44.451Z,17.63
2019-01-30T18:19:12.371Z,15.10
2019-01-30T18:21:40.002Z,15.00
2019-01-30T18:24:08.016Z,14.67
2019-01-30T18:29:25.640Z,12.73
2019-01-30T18:31:53.752Z,14.73
2019-01-30T18:34:21.489Z,11.13
2019-01-30T18:36:49.685Z,11.10
2019-01-30T18:39:17.731Z,10.90
2019-01-30T18:41:45.840Z,12.30
2019-01-30T18:44:13.893Z,11.77
2019-01-30T18:46:41.559Z,14.30
2019-01-30T18:49:09.094Z,13.37
2019-01-30T18:51:36.861Z,11.00
2019-01-30T18:54:04.588Z,13.67
2019-01-30T18:56:32.323Z,15.93
2019-01-30T18:58:59.985Z,14.17
2019-01-30T19:01:27.705Z,9.43
2019-01-30T19:03:55.378Z,14.47
2019-01-30T19:06:23.479Z,13.87
2019-01-30T19:08:51.220Z,19.07
2019-01-30T19:11:18.844Z,18.87
2019-01-30T19:13:46.516Z,16.77
2019-01-30T19:16:14.273Z,15.23
2019-01-30T19:18:41.888Z,21.57
2019-01-30T19:21:09.552Z,16.07
2019-01-30T19:23:37.300Z,17.73
2019-01-30T19:26:05.093Z,19.80
2019-01-30T19:28:32.785Z,21.43
2019-01-30T19:31:00.389Z,18.90
2019-01-30T19:33:28.022Z,20.93
2019-01-30T19:38:44.902Z,22.50
2019-01-30T19:41:12.686Z,22.20
2019-01-30T19:43:40.486Z,21.90
2019-01-30T19:46:08.591Z,26.77
2019-01-30T19:48:36.387Z,30.40
2019-01-30T19:51:04.171Z,27.93
2019-01-30T19:53:31.953Z,25.83
2019-01-30T19:55:59.752Z,26.33
2019-01-30T19:58:27.457Z,23.03
2019-01-30T20:00:55.167Z,24.40
2019-01-30T20:03:24.580Z,30.87
2019-01-30T20:05:52.250Z,30.97
2019-01-30T20:08:20.336Z,32.77
2019-01-30T20:10:48.387Z,27.50
2019-01-30T20:13:16.067Z,33.33
2019-01-30T20:15:44.176Z,57.73
2019-01-30T20:18:12.070Z,34.13
2019-01-30T20:20:39.833Z,35.90
2019-01-30T20:23:08.506Z,34.27
2019-01-30T20:25:36.837Z,32.37
2019-01-30T20:28:05.986Z,39.97
2019-01-30T20:30:33.792Z,36.60
2019-01-30T20:33:01.916Z,38.20
2019-01-30T20:35:29.615Z,41.23
2019-01-30T20:37:57.377Z,40.73
2019-01-30T20:40:25.882Z,42.77
2019-01-30T20:42:53.472Z,45.63
2019-01-30T20:45:21.266Z,46.10
2019-01-30T20:47:48.850Z,42.70
2019-01-30T20:50:17.631Z,40.60
2019-01-30T20:52:45.248Z,40.07
2019-01-30T20:55:13.734Z,48.80
2019-01-30T20:57:41.756Z,40.20
2019-01-30T21:00:15.099Z,40.00
2019-01-30T21:02:42.733Z,37.53
2019-01-30T21:05:10.514Z,48.80
2019-01-30T21:07:38.179Z,42.70
2019-01-30T21:10:07.002Z,42.07
2019-01-30T21:12:34.651Z,39.33
2019-01-30T21:15:02.238Z,40.73
2019-01-30T21:17:29.911Z,39.07
2019-01-30T21:19:58.930Z,33.47
2019-01-30T21:22:26.573Z,36.37
2019-01-30T21:24:54.197Z,37.67
2019-01-30T21:27:21.895Z,39.50
2019-01-30T21:29:49.543Z,43.57
2019-01-30T21:32:17.384Z,37.67
2019-01-30T21:34:45.262Z,39.87
2019-01-30T21:37:13.075Z,45.23
2019-01-30T21:39:40.844Z,41.87
2019-01-30T21:42:08.902Z,42.50
2019-01-30T21:44:37.025Z,38.80
2019-01-30T21:47:05.057Z,38.30
2019-01-30T21:49:32.961Z,36.07
2019-01-30T21:52:00.768Z,39.37
2019-01-30T21:54:28.594Z,38.20
2019-01-30T21:56:57.196Z,42.63
2019-01-30T21:59:24.919Z,50.70
2019-01-30T22:01:52.583Z,40.33
2019-01-30T22:04:20.302Z,32.73
2019-01-30T22:06:47.935Z,33.60
2019-01-30T22:09:15.923Z,34.70
2019-01-30T22:11:43.550Z,38.03
2019-01-30T22:14:11.254Z,36.37
2019-01-30T22:16:39.293Z,36.57
2019-01-30T22:19:06.978Z,42.90
2019-01-30T22:21:34.679Z,42.40
2019-01-30T22:24:05.689Z,48.13
2019-01-30T22:26:31.885Z,43.80
2019-01-30T22:29:02.803Z,41.23
2019-01-30T22:31:30.806Z,44.23
2019-01-30T22:33:58.438Z,41.17
2019-01-30T22:36:26.477Z,44.07
2019-01-30T22:38:54.073Z,39.40
2019-01-30T22:41:22.151Z,41.17
2019-01-30T22:43:49.852Z,40.73
2019-01-30T22:46:17.815Z,41.63
2019-01-30T22:48:45.921Z,43.03
2019-01-30T22:51:22.339Z,50.20
2019-01-30T22:53:51.027Z,49.40
2019-01-30T22:56:19.434Z,52.83
2019-01-30T22:58:47.080Z,52.00
2019-01-30T23:01:43.702Z,49.47
2019-01-30T23:04:30.864Z,51.17
2019-01-30T23:07:01.201Z,52.73
2019-01-30T23:09:52.910Z,62.13
2019-01-30T23:12:45.911Z,54.90
2019-01-30T23:15:19.828Z,57.07
2019-01-30T23:18:06.911Z,57.03
2019-01-30T23:20:48.918Z,61.80
2019-01-30T23:23:36.233Z,57.37
2019-01-30T23:26:29.553Z,58.37
2019-01-30T23:29:15.509Z,59.20
2019-01-30T23:31:47.068Z,56.47
2019-01-30T23:34:29.696Z,53.90
2019-01-30T23:37:17.705Z,54.57
2019-01-30T23:40:04.740Z,50.17
2019-01-30T23:43:01.039Z,56.20
2019-01-30T23:45:51.252Z,50.63
2019-01-30T23:48:41.548Z,48.40
2019-01-30T23:51:28.046Z,46.20
2019-01-30T23:53:58.543Z,50.67
2019-01-30T23:56:44.508Z,48.07
2019-01-30T23:59:37.804Z,45.33
